Time;durP1;ratioP1;P1;durP2;ratioP2;P2;SDS_P1;SDS_P2;PMS_P1;PMS_P2;Temp;Humidity;BMP_temperature;BMP_pressure;BME280_temperature;BME280_humidity;BME280_pressure;Samples;Min_cycle;Max_cycle;Signal;HPM_P1;HPM_P2
2023/05/08 00:02:02;;;;;;;15.80;11.48;;;8.20;99.90;;;;;;4998065;28;20033;-75
2023/05/08 00:04:28;;;;;;;13.85;10.93;;;;;;;;;;5014892;28;20066;-75
2023/05/08 00:06:54;;;;;;;14.95;10.25;;;8.30;99.90;;;;;;4997613;28;20022;-75
2023/05/08 00:09:20;;;;;;;12.52;9.98;;;8.30;99.90;;;;;;4997553;28;20355;-75
2023/05/08 00:11:46;;;;;;;12.95;9.38;;;8.40;99.90;;;;;;5014690;28;20042;-75
2023/05/08 00:14:11;;;;;;;14.23;8.98;;;8.30;99.90;;;;;;5015343;28;20084;-75
2023/05/08 00:16:37;;;;;;;10.57;8.32;;;8.20;99.90;;;;;;5014730;28;20025;-75
2023/05/08 00:19:02;;;;;;;10.25;8.38;;;8.20;99.90;;;;;;4997376;28;20025;-75
2023/05/08 00:21:28;;;;;;;10.57;8.43;;;8.20;99.90;;;;;;5014837;28;20030;-75
2023/05/08 00:23:54;;;;;;;12.05;8.27;;;8.20;99.90;;;;;;4997312;28;20026;-75
2023/05/08 00:26:20;;;;;;;11.70;8.80;;;8.20;99.90;;;;;;5014708;28;20025;-75
2023/05/08 00:28:46;;;;;;;11.90;8.57;;;8.30;99.90;;;;;;5014766;28;20476;-75
2023/05/08 00:31:12;;;;;;;10.05;7.88;;;8.30;99.90;;;;;;4997504;28;20117;-75
2023/05/08 00:33:38;;;;;;;11.88;8.73;;;8.30;99.90;;;;;;4997233;28;20034;-75
2023/05/08 00:36:05;;;;;;;9.98;8.07;;;8.30;99.90;;;;;;5014355;28;20106;-75
2023/05/08 00:38:32;;;;;;;11.15;8.30;;;8.30;99.90;;;;;;5014580;28;20037;-75
2023/05/08 00:40:58;;;;;;;12.10;8.40;;;8.30;99.90;;;;;;5014751;28;20030;-75
2023/05/08 00:43:26;;;;;;;13.00;9.05;;;8.40;99.90;;;;;;4996858;28;20045;-75
2023/05/08 00:45:54;;;;;;;10.43;8.48;;;8.30;99.90;;;;;;5014110;28;20073;-75
2023/05/08 00:48:22;;;;;;;11.07;8.43;;;8.40;99.90;;;;;;5013822;28;20458;-75
2023/05/08 00:50:49;;;;;;;13.20;9.15;;;8.30;99.90;;;;;;4997058;28;20026;-75
2023/05/08 00:53:15;;;;;;;13.15;8.20;;;8.30;99.90;;;;;;5014593;28;20112;-75
2023/05/08 00:55:42;;;;;;;11.10;8.45;;;8.30;99.90;;;;;;4996949;28;20492;-75
2023/05/08 00:58:08;;;;;;;10.80;7.88;;;8.30;99.90;;;;;;5014311;28;20462;-75
2023/05/08 01:00:35;;;;;;;12.32;8.68;;;8.40;99.90;;;;;;5014259;28;20033;-75
2023/05/08 01:03:00;;;;;;;10.55;7.95;;;8.40;99.90;;;;;;4996844;28;20510;-75
2023/05/08 01:05:27;;;;;;;12.30;8.45;;;8.30;99.90;;;;;;5014236;28;20049;-75
2023/05/08 01:07:53;;;;;;;11.10;8.45;;;8.20;99.90;;;;;;5014204;28;20048;-75
2023/05/08 01:10:18;;;;;;;9.77;7.55;;;8.20;99.90;;;;;;4996609;28;20459;-75
2023/05/08 01:12:44;;;;;;;11.18;8.55;;;8.20;99.90;;;;;;5014039;28;20113;-75
2023/05/08 01:15:28;;;;;;;13.80;9.15;;;8.20;99.90;;;;;;5013772;28;20061;-75
2023/05/08 01:18:18;;;;;;;12.63;9.65;;;8.20;99.90;;;;;;5014118;28;20121;-75
2023/05/08 01:20:48;;;;;;;10.93;8.15;;;8.10;99.90;;;;;;5014057;28;20057;-75
2023/05/08 01:23:52;;;;;;;11.48;8.15;;;8.10;99.90;;;;;;5013678;28;20088;-75
2023/05/08 01:26:49;;;;;;;12.55;9.15;;;8.20;99.90;;;;;;4996449;28;20026;-75
2023/05/08 01:29:33;;;;;;;10.80;8.43;;;8.20;99.90;;;;;;5013691;28;20481;-75
2023/05/08 01:32:31;;;;;;;14.65;9.85;;;8.20;99.90;;;;;;4996490;28;20389;-75
2023/05/08 01:35:09;;;;;;;9.77;8.15;;;8.30;99.90;;;;;;4995269;28;20038;-75
2023/05/08 01:37:48;;;;;;;13.38;8.90;;;8.20;99.90;;;;;;4996281;28;20033;-75
2023/05/08 01:40:27;;;;;;;13.73;9.38;;;8.20;99.90;;;;;;5013928;28;20030;-75
2023/05/08 01:43:05;;;;;;;12.95;8.90;;;8.20;99.90;;;;;;4996816;28;20209;-75
2023/05/08 01:45:44;;;;;;;10.90;8.75;;;8.20;99.90;;;;;;4996025;28;20054;-75
2023/05/08 01:48:16;;;;;;;12.93;9.40;;;8.20;99.90;;;;;;5014075;28;20026;-74
2023/05/08 01:50:46;;;;;;;12.32;9.32;;;8.10;99.90;;;;;;5014057;28;20034;-74
2023/05/08 01:53:17;;;;;;;12.38;7.88;;;8.10;99.90;;;;;;5013629;28;20117;-75
2023/05/08 01:55:45;;;;;;;11.35;8.82;;;8.10;99.90;;;;;;5013984;28;20033;-75
2023/05/08 01:58:12;;;;;;;13.27;9.38;;;8.20;99.90;;;;;;5013425;28;20029;-75
2023/05/08 02:00:40;;;;;;;11.77;8.90;;;8.10;99.90;;;;;;5016056;28;20483;-74
2023/05/08 02:03:07;;;;;;;14.23;9.95;;;8.20;99.90;;;;;;5000130;28;20425;-75
2023/05/08 02:05:36;;;;;;;12.18;9.10;;;8.10;99.90;;;;;;5017405;28;20109;-74
2023/05/08 02:08:03;;;;;;;;;;;8.10;99.90;;;;;;5017501;28;20022;-74
2023/05/08 02:10:29;;;;;;;13.48;9.10;;;8.10;99.90;;;;;;5017368;28;19905;-74
2023/05/08 02:12:57;;;;;;;15.70;9.40;;;8.10;99.90;;;;;;5017219;28;20032;-74
2023/05/08 02:15:24;;;;;;;12.48;9.27;;;8.20;99.90;;;;;;5017525;28;20351;-74
2023/05/08 02:17:54;;;;;;;12.05;9.02;;;8.20;99.90;;;;;;4999706;28;20034;-75
2023/05/08 02:20:21;;;;;;;13.77;8.82;;;8.20;99.90;;;;;;4999510;28;20465;-74
2023/05/08 02:22:50;;;;;;;11.57;8.55;;;8.20;99.90;;;;;;5016820;28;20057;-74
2023/05/08 02:25:17;;;;;;;11.65;8.75;;;8.30;99.90;;;;;;5017110;28;20109;-74
2023/05/08 02:27:45;;;;;;;10.10;8.25;;;8.20;99.90;;;;;;4999367;28;20034;-75
2023/05/08 02:30:16;;;;;;;12.40;8.35;;;8.30;99.90;;;;;;5016951;28;20030;-74
2023/05/08 02:32:44;;;;;;;10.00;8.07;;;8.20;99.90;;;;;;5016801;28;20037;-74
2023/05/08 02:35:13;;;;;;;11.25;8.02;;;8.20;99.90;;;;;;5016881;28;20036;-75
2023/05/08 02:37:44;;;;;;;10.82;8.00;;;8.10;99.90;;;;;;4999228;28;20032;-74
2023/05/08 02:40:11;;;;;;;12.57;8.52;;;8.10;99.90;;;;;;4999190;28;20022;-74
2023/05/08 02:42:37;;;;;;;11.50;7.57;;;8.00;99.90;;;;;;4999107;28;20417;-74
2023/05/08 02:45:04;;;;;;;11.80;8.38;;;8.00;99.90;;;;;;5016209;28;20034;-74
2023/05/08 02:47:41;;;;;;;8.63;7.32;;;7.90;99.90;;;;;;5016921;28;20029;-74
2023/05/08 02:50:17;;;;;;;10.73;8.13;;;7.90;99.90;;;;;;5017094;28;20034;-74
2023/05/08 02:52:59;;;;;;;9.38;7.97;;;8.00;99.90;;;;;;4998840;28;20030;-74
2023/05/08 02:55:56;;;;;;;10.02;7.68;;;8.00;99.90;;;;;;4999183;28;20164;-74
2023/05/08 02:59:10;;;;;;;10.30;7.78;;;8.00;99.90;;;;;;4998838;28;20022;-74
2023/05/08 03:02:05;;;;;;;10.05;8.20;;;8.10;99.90;;;;;;4981542;28;20038;-74
2023/05/08 03:04:39;;;;;;;9.48;7.70;;;8.00;99.90;;;;;;5016748;28;20034;-74
2023/05/08 03:07:05;;;;;;;10.82;8.10;;;8.00;99.90;;;;;;5016039;28;20030;-74
2023/05/08 03:09:44;;;;;;;9.40;7.25;;;8.00;99.90;;;;;;5016201;28;20022;-74
2023/05/08 03:12:15;;;;;;;9.77;8.07;;;7.90;99.90;;;;;;4997688;28;20050;-74
2023/05/08 03:14:46;;;;;;;11.50;8.32;;;8.00;99.90;;;;;;4999405;28;20084;-75
2023/05/08 03:17:15;;;;;;;11.13;7.75;;;8.00;99.90;;;;;;4998916;28;20054;-74
2023/05/08 03:19:43;;;;;;;;;;;8.00;99.90;;;;;;5016443;28;20018;-74
2023/05/08 03:22:09;;;;;;;9.73;7.38;;;7.90;99.90;;;;;;5015698;28;19913;-74
2023/05/08 03:24:37;;;;;;;8.57;7.00;;;7.90;99.90;;;;;;5015661;28;20033;-74
2023/05/08 03:27:04;;;;;;;9.20;7.25;;;6.90;99.90;;;;;;4998267;28;20025;-74
2023/05/08 03:29:33;;;;;;;11.05;7.00;;;7.80;99.90;;;;;;5015832;28;20026;-74
2023/05/08 03:32:01;;;;;;;8.65;6.85;;;7.80;99.90;;;;;;5015438;28;20030;-74
2023/05/08 03:34:28;;;;;;;8.48;6.75;;;7.80;99.90;;;;;;5015706;28;20119;-74
2023/05/08 03:36:55;;;;;;;11.32;7.25;;;7.80;99.90;;;;;;5015641;28;20041;-74
2023/05/08 03:39:21;;;;;;;8.77;6.88;;;7.80;99.90;;;;;;5015641;28;20024;-75
2023/05/08 03:41:48;;;;;;;10.05;7.07;;;7.80;99.90;;;;;;5015328;28;20030;-75
2023/05/08 03:44:16;;;;;;;10.88;6.72;;;7.70;99.90;;;;;;4997928;28;20030;-74
2023/05/08 03:46:43;;;;;;;10.13;7.40;;;7.70;99.90;;;;;;5015682;28;20434;-74
2023/05/08 03:49:11;;;;;;;9.13;7.28;;;7.60;99.90;;;;;;5015487;28;20040;-74
2023/05/08 03:51:39;;;;;;;9.07;7.50;;;7.70;99.90;;;;;;5015337;28;20044;-74
2023/05/08 03:54:04;;;;;;;11.03;7.23;;;7.70;99.90;;;;;;4997784;28;20033;-75
2023/05/08 03:56:30;;;;;;;10.82;7.68;;;7.70;99.90;;;;;;5015356;28;20092;-74
2023/05/08 03:59:12;;;;;;;9.40;7.15;;;7.80;99.90;;;;;;5015310;28;20022;-74
2023/05/08 04:01:43;;;;;;;9.80;6.75;;;7.80;99.90;;;;;;5015863;28;20524;-74
2023/05/08 04:04:11;;;;;;;9.32;6.72;;;7.80;99.90;;;;;;5015998;28;20381;-73
2023/05/08 04:06:44;;;;;;;12.68;7.50;;;7.90;99.90;;;;;;4998247;28;20022;-75
2023/05/08 04:09:26;;;;;;;11.88;7.78;;;7.90;99.90;;;;;;4998435;28;20030;-74
2023/05/08 04:11:59;;;;;;;11.85;7.72;;;7.80;99.90;;;;;;5015264;28;20061;-74
2023/05/08 04:14:29;;;;;;;9.73;7.15;;;7.90;99.90;;;;;;4997660;28;20038;-73
2023/05/08 04:17:01;;;;;;;10.70;7.45;;;8.00;99.90;;;;;;5014724;28;20032;-73
2023/05/08 04:19:32;;;;;;;9.25;6.90;;;8.00;99.90;;;;;;4997741;28;20489;-74
2023/05/08 04:22:03;;;;;;;11.80;7.25;;;8.10;99.90;;;;;;5014628;28;20367;-74
2023/05/08 04:24:32;;;;;;;10.98;7.50;;;8.10;99.90;;;;;;5018963;28;20093;-82
2023/05/08 04:27:00;;;;;;;10.60;7.38;;;8.10;99.90;;;;;;4998511;28;20410;-72
2023/05/08 04:29:26;;;;;;;10.95;8.05;;;8.00;99.90;;;;;;4997205;28;20111;-72
2023/05/08 04:31:52;;;;;;;9.85;7.22;;;8.00;99.90;;;;;;5014906;28;20049;-73
2023/05/08 04:34:18;;;;;;;9.45;7.00;;;8.00;99.90;;;;;;4996832;28;20026;-73
2023/05/08 04:36:44;;;;;;;10.70;7.32;;;8.00;99.90;;;;;;4997541;28;20080;-72
2023/05/08 04:39:09;;;;;;;8.95;6.57;;;8.10;99.90;;;;;;5014908;28;20030;-73
2023/05/08 04:41:35;;;;;;;9.05;6.47;;;8.20;99.90;;;;;;5014523;28;20033;-74
2023/05/08 04:44:03;;;;;;;9.60;6.80;;;9.60;99.90;;;;;;4996945;28;20037;-73
2023/05/08 04:46:28;;;;;;;9.07;6.97;;;8.30;99.90;;;;;;5014054;28;20128;-74
2023/05/08 04:48:54;;;;;;;8.88;6.93;;;8.30;99.90;;;;;;4996596;28;20061;-72
2023/05/08 04:51:20;;;;;;;9.18;6.47;;;8.40;99.90;;;;;;4995845;28;20021;-73
2023/05/08 04:53:45;;;;;;;9.27;7.13;;;8.40;99.90;;;;;;5013358;28;20424;-73
2023/05/08 04:56:11;;;;;;;10.52;7.00;;;8.30;99.90;;;;;;5013306;28;20517;-74
2023/05/08 04:58:37;;;;;;;8.85;7.18;;;8.40;99.90;;;;;;4995616;28;20022;-74
2023/05/08 05:01:03;;;;;;;11.10;6.55;;;8.30;99.90;;;;;;4995570;28;20021;-74
2023/05/08 05:03:29;;;;;;;8.85;7.28;;;8.40;99.90;;;;;;5012728;28;20091;-73
2023/05/08 05:05:58;;;;;;;11.48;6.30;;;8.50;99.90;;;;;;5010294;28;20521;-74
2023/05/08 05:08:24;;;;;;;8.30;6.50;;;8.50;99.90;;;;;;5004349;28;20040;-73
2023/05/08 05:10:50;;;;;;;11.00;6.57;;;8.60;99.90;;;;;;5013423;28;20029;-73
2023/05/08 05:13:16;;;;;;;11.00;6.25;;;8.60;99.90;;;;;;5014187;28;20084;-73
2023/05/08 05:15:42;;;;;;;7.43;5.63;;;8.80;99.90;;;;;;5014398;28;20121;-73
2023/05/08 05:18:07;;;;;;;8.45;5.75;;;8.70;99.90;;;;;;4996418;28;20458;-73
2023/05/08 05:20:33;;;;;;;7.30;5.63;;;8.80;99.90;;;;;;5014426;28;20113;-73
2023/05/08 05:22:59;;;;;;;9.20;6.30;;;8.80;99.90;;;;;;5013426;28;20037;-73
2023/05/08 05:25:24;;;;;;;8.75;6.32;;;8.70;99.90;;;;;;5013621;28;20026;-73
2023/05/08 05:27:50;;;;;;;7.35;5.65;;;8.80;99.90;;;;;;5013451;28;20457;-73
2023/05/08 05:30:16;;;;;;;8.18;6.05;;;9.00;99.90;;;;;;5013865;28;20029;-72
2023/05/08 05:32:42;;;;;;;8.13;5.78;;;9.10;99.90;;;;;;5014058;28;20038;-73
2023/05/08 05:35:08;;;;;;;7.60;5.65;;;9.30;99.90;;;;;;4998432;28;20038;-74
2023/05/08 05:37:34;;;;;;;8.52;5.68;;;9.30;99.90;;;;;;5000267;28;20050;-73
2023/05/08 05:40:00;;;;;;;8.27;5.93;;;9.40;99.90;;;;;;5017874;28;20493;-74
2023/05/08 05:42:26;;;;;;;9.40;6.05;;;9.60;99.90;;;;;;5000565;28;20037;-74
2023/05/08 05:44:52;;;;;;;8.27;5.15;;;9.90;99.90;;;;;;5017808;28;20029;-74
2023/05/08 05:47:17;;;;;;;5.95;5.15;;;10.10;99.90;;;;;;5017257;28;20409;-73
2023/05/08 05:49:46;;;;;;;6.13;4.80;;;10.10;99.90;;;;;;5017749;28;20037;-74
2023/05/08 05:52:13;;;;;;;6.93;5.47;;;10.00;99.90;;;;;;5017643;28;20030;-73
2023/05/08 05:54:40;;;;;;;8.43;5.03;;;10.20;99.90;;;;;;5000627;28;20390;-73
2023/05/08 05:57:06;;;;;;;8.02;5.22;;;10.40;99.90;;;;;;5000031;28;20385;-73
2023/05/08 05:59:32;;;;;;;6.78;5.15;;;10.50;99.90;;;;;;4999823;28;20037;-73
2023/05/08 06:01:57;;;;;;;6.10;5.05;;;10.90;99.90;;;;;;5017465;28;20025;-73
2023/05/08 06:04:23;;;;;;;5.53;4.60;;;11.40;99.90;;;;;;4999590;28;20388;-73
2023/05/08 06:06:49;;;;;;;5.85;4.90;;;11.90;99.90;;;;;;5017177;28;20030;-73
2023/05/08 06:09:14;;;;;;;5.95;4.65;;;12.20;98.60;;;;;;5017215;28;20084;-73
2023/05/08 06:11:41;;;;;;;5.95;4.80;;;12.00;98.00;;;;;;4999474;28;20034;-73
2023/05/08 06:14:06;;;;;;;8.02;4.30;;;12.50;98.70;;;;;;4999592;28;20165;-74
2023/05/08 06:16:34;;;;;;;6.03;4.28;;;13.00;97.10;;;;;;5017176;28;20482;-73
2023/05/08 06:18:59;;;;;;;6.03;4.10;;;12.90;95.10;;;;;;5017131;28;20030;-73
2023/05/08 06:21:27;;;;;;;4.90;4.10;;;13.10;95.10;;;;;;5017003;28;20121;-73
2023/05/08 06:23:53;;;;;;;4.15;3.70;;;13.20;94.20;;;;;;5017237;28;20018;-73
2023/05/08 06:26:19;;;;;;;5.32;4.35;;;13.30;93.20;;;;;;4999222;28;20469;-74
2023/05/08 06:28:45;;;;;;;6.95;4.30;;;13.40;92.80;;;;;;4999253;28;20458;-73
2023/05/08 06:31:10;;;;;;;4.65;4.20;;;12.90;92.90;;;;;;4999183;28;20040;-73
2023/05/08 06:33:36;;;;;;;5.15;4.63;;;12.40;93.80;;;;;;5016703;28;20116;-73
2023/05/08 06:36:05;;;;;;;7.28;4.75;;;11.80;94.60;;;;;;5016670;28;20026;-74
2023/05/08 06:38:31;;;;;;;5.05;4.10;;;11.70;95.40;;;;;;5016853;28;20050;-73
2023/05/08 06:40:56;;;;;;;6.00;4.00;;;11.70;95.50;;;;;;5016662;28;20034;-73
2023/05/08 06:43:22;;;;;;;4.60;4.00;;;11.80;96.30;;;;;;5016560;28;20034;-74
2023/05/08 06:45:48;;;;;;;4.43;3.83;;;11.70;95.60;;;;;;5015512;28;20041;-73
2023/05/08 06:48:13;;;;;;;4.60;4.20;;;11.30;96.40;;;;;;4999020;28;20034;-74
2023/05/08 06:50:39;;;;;;;5.82;3.85;;;11.10;97.90;;;;;;4999134;28;20029;-74
2023/05/08 06:53:06;;;;;;;5.85;4.20;;;11.20;98.20;;;;;;5016548;28;20041;-74
2023/05/08 06:55:32;;;;;;;4.80;4.00;;;11.40;97.60;;;;;;5017024;28;20034;-73
2023/05/08 06:57:57;;;;;;;5.47;4.35;;;11.30;97.00;;;;;;4999204;28;20477;-73
2023/05/08 07:00:23;;;;;;;4.40;3.75;;;11.50;97.00;;;;;;5016465;28;20033;-73
2023/05/08 07:02:49;;;;;;;6.13;4.32;;;11.30;96.80;;;;;;4999537;28;20060;-73
2023/05/08 07:05:15;;;;;;;5.03;3.88;;;11.20;97.90;;;;;;4998849;28;20508;-74
2023/05/08 07:07:41;;;;;;;9.48;4.45;;;11.20;98.30;;;;;;5016054;28;20365;-74
2023/05/08 07:10:07;;;;;;;5.32;4.07;;;10.80;98.70;;;;;;4998644;28;20022;-73
2023/05/08 07:12:33;;;;;;;8.43;4.10;;;10.80;98.80;;;;;;5016016;28;20397;-73
2023/05/08 07:14:58;;;;;;;5.35;4.05;;;10.90;98.80;;;;;;4998571;28;20116;-73
2023/05/08 07:17:24;;;;;;;4.72;4.13;;;10.90;98.90;;;;;;4998512;28;20022;-74
2023/05/08 07:19:50;;;;;;;4.03;3.55;;;10.90;98.80;;;;;;4998700;28;20061;-74
2023/05/08 07:22:16;;;;;;;11.07;4.22;;;11.00;98.10;;;;;;5015969;28;20037;-74
2023/05/08 07:24:42;;;;;;;7.53;4.57;;;11.20;98.30;;;;;;4998466;28;20030;-73
2023/05/08 07:27:08;;;;;;;6.15;3.78;;;11.20;97.60;;;;;;4998434;28;20025;-74
2023/05/08 07:29:37;;;;;;;5.15;3.90;;;11.40;98.10;;;;;;5016076;28;20026;-74
2023/05/08 07:32:06;;;;;;;4.82;3.72;;;11.50;97.30;;;;;;5015809;28;20034;-73
2023/05/08 07:34:32;;;;;;;;;;;11.40;97.60;;;;;;4998826;28;20034;-73
2023/05/08 07:36:58;;;;;;;4.97;3.85;;;11.50;98.00;;;;;;4998230;28;20399;-73
2023/05/08 07:39:24;;;;;;;6.28;3.63;;;11.40;97.60;;;;;;5015670;28;20025;-74
2023/05/08 07:41:49;;;;;;;8.27;5.03;;;11.60;97.90;;;;;;5016048;28;20037;-73
2023/05/08 07:44:15;;;;;;;6.03;5.07;;;11.70;97.50;;;;;;5015572;28;20034;-73
2023/05/08 07:46:41;;;;;;;6.95;4.78;;;11.40;97.80;;;;;;5015819;28;20054;-74
2023/05/08 07:49:06;;;;;;;6.28;4.97;;;11.30;98.20;;;;;;4998653;28;20026;-74
2023/05/08 07:51:32;;;;;;;6.78;4.75;;;11.30;98.80;;;;;;5016910;28;20026;-74
2023/05/08 07:53:58;;;;;;;7.65;5.35;;;11.50;98.80;;;;;;5017213;28;20105;-74
2023/05/08 07:56:23;;;;;;;8.88;5.05;;;11.60;97.80;;;;;;5016540;28;20077;-73
2023/05/08 07:58:49;;;;;;;10.60;4.88;;;11.50;98.10;;;;;;5015627;28;20148;-74
2023/05/08 08:01:16;;;;;;;5.20;4.50;;;11.50;98.20;;;;;;5015951;28;20088;-73
2023/05/08 08:03:43;;;;;;;5.72;4.55;;;11.50;98.10;;;;;;4997731;28;20030;-74
2023/05/08 08:06:09;;;;;;;6.07;5.13;;;11.50;98.00;;;;;;4997210;28;20117;-74
2023/05/08 08:08:35;;;;;;;10.40;5.80;;;11.50;98.00;;;;;;5014857;28;20096;-74
2023/05/08 08:11:00;;;;;;;4.80;4.28;;;11.60;98.20;;;;;;5015211;28;20028;-74
2023/05/08 08:13:26;;;;;;;5.07;4.45;;;11.80;98.70;;;;;;4997549;28;20033;-74
2023/05/08 08:15:52;;;;;;;4.93;4.05;;;11.80;96.80;;;;;;5015507;28;20080;-74
2023/05/08 08:18:17;;;;;;;5.72;3.78;;;11.70;97.60;;;;;;5015426;28;20071;-74
2023/05/08 08:20:46;;;;;;;4.63;3.72;;;11.80;97.90;;;;;;5014758;28;20513;-74
2023/05/08 08:23:11;;;;;;;4.47;3.88;;;11.80;97.10;;;;;;4997828;28;20180;-74
2023/05/08 08:25:37;;;;;;;4.55;4.05;;;12.10;96.30;;;;;;4998900;28;20142;-74
2023/05/08 08:28:03;;;;;;;4.40;4.00;;;12.10;96.50;;;;;;5015427;28;20029;-74
2023/05/08 08:30:29;;;;;;;7.30;4.70;;;12.20;96.70;;;;;;5015105;28;20377;-73
2023/05/08 08:32:54;;;;;;;7.57;3.80;;;12.40;95.80;;;;;;4997044;28;20536;-74
2023/05/08 08:35:25;;;;;;;5.50;4.25;;;12.50;96.10;;;;;;4997069;28;20040;-73
2023/05/08 08:37:51;;;;;;;7.15;4.95;;;12.70;96.30;;;;;;4997289;28;20026;-74
2023/05/08 08:40:16;;;;;;;5.72;4.65;;;12.90;95.40;;;;;;5015784;28;20382;-75
2023/05/08 08:42:42;;;;;;;5.70;4.90;;;12.80;95.00;;;;;;5034281;28;20108;-73
2023/05/08 08:45:09;;;;;;;5.07;4.55;;;12.50;95.50;;;;;;5034125;28;20473;-73
2023/05/08 08:47:36;;;;;;;5.25;4.35;;;12.40;95.90;;;;;;5034269;28;20028;-74
2023/05/08 08:50:03;;;;;;;5.78;4.88;;;12.50;96.20;;;;;;5016869;28;20026;-73
2023/05/08 08:52:54;;;;;;;6.68;4.13;;;13.00;95.40;;;;;;5016692;28;20112;-74
2023/05/08 08:55:22;;;;;;;4.55;4.15;;;13.10;94.40;;;;;;5034316;28;20453;-73
2023/05/08 08:58:00;;;;;;;5.57;4.50;;;13.20;94.30;;;;;;5034062;28;20033;-73
2023/05/08 09:00:30;;;;;;;5.00;4.50;;;13.40;93.70;;;;;;5034378;28;20049;-73
2023/05/08 09:02:56;;;;;;;6.32;4.85;;;13.40;93.90;;;;;;5034074;28;20026;-73
2023/05/08 09:05:23;;;;;;;5.80;4.63;;;13.10;94.20;;;;;;5033928;28;20382;-73
2023/05/08 09:07:53;;;;;;;4.78;4.28;;;13.20;94.90;;;;;;5033927;28;20021;-73
2023/05/08 09:10:19;;;;;;;5.28;4.65;;;13.60;94.50;;;;;;5033001;28;20377;-66
2023/05/08 09:12:46;;;;;;;5.38;4.45;;;14.20;93.50;;;;;;5033163;28;20030;-65
2023/05/08 09:15:12;;;;;;;4.78;4.30;;;14.50;92.30;;;;;;5033449;28;20113;-66
2023/05/08 09:17:37;;;;;;;7.35;4.75;;;14.60;92.40;;;;;;5033558;28;20049;-66
2023/05/08 09:20:04;;;;;;;6.35;4.63;;;14.70;91.10;;;;;;5015959;28;20033;-66
2023/05/08 09:22:30;;;;;;;4.10;3.78;;;14.80;91.20;;;;;;5033666;28;20029;-66
2023/05/08 09:24:57;;;;;;;4.30;3.90;;;14.90;91.10;;;;;;5033687;28;20030;-73
2023/05/08 09:27:25;;;;;;;4.57;4.10;;;15.00;89.60;;;;;;5033696;28;20033;-73
2023/05/08 09:30:01;;;;;;;7.15;4.07;;;15.70;87.60;;;;;;5016538;28;20386;-73
2023/05/08 09:32:28;;;;;;;4.30;3.90;;;16.70;82.60;;;;;;5033418;28;20030;-73
2023/05/08 09:34:54;;;;;;;4.32;3.92;;;17.10;76.70;;;;;;5033508;28;20240;-73
2023/05/08 09:37:20;;;;;;;4.10;3.80;;;17.10;75.80;;;;;;5015849;28;20064;-73
2023/05/08 09:39:46;;;;;;;5.07;4.22;;;16.60;75.40;;;;;;5033260;28;20021;-73
2023/05/08 09:42:12;;;;;;;5.85;4.32;;;15.70;77.30;;;;;;5015757;28;20110;-73
2023/05/08 09:44:48;;;;;;;4.95;4.43;;;15.10;79.70;;;;;;5015696;28;20060;-73
2023/05/08 09:47:23;;;;;;;4.55;4.15;;;15.00;81.70;;;;;;5033000;28;20107;-73
2023/05/08 09:49:59;;;;;;;5.68;3.88;;;15.10;84.10;;;;;;5033531;28;20038;-73
2023/05/08 09:52:25;;;;;;;5.00;4.20;;;16.40;82.40;;;;;;5016148;28;20123;-73
2023/05/08 09:55:03;;;;;;;5.28;3.80;;;17.70;76.60;;;;;;5033383;28;20032;-73
2023/05/08 09:57:31;;;;;;;5.05;4.13;;;18.20;71.80;;;;;;5033622;28;20030;-73
2023/05/08 10:00:11;;;;;;;6.43;3.88;;;17.60;69.30;;;;;;5033267;28;20025;-73
2023/05/08 10:02:52;;;;;;;3.60;3.30;;;17.00;71.50;;;;;;5033286;28;20048;-73
2023/05/08 10:05:33;;;;;;;4.03;3.67;;;17.80;70.50;;;;;;5033844;28;20469;-73
2023/05/08 10:08:22;;;;;;;3.38;3.08;;;18.10;68.70;;;;;;5033157;28;20026;-73
2023/05/08 10:10:49;;;;;;;4.35;3.10;;;17.90;67.10;;;;;;5033190;28;20082;-73
2023/05/08 10:13:14;;;;;;;8.95;3.38;;;18.30;69.10;;;;;;5015163;28;20041;-73
2023/05/08 10:15:44;;;;;;;3.50;3.20;;;19.10;64.80;;;;;;5033052;28;20592;-73
2023/05/08 10:18:13;;;;;;;4.40;3.28;;;19.80;62.10;;;;;;5015079;28;20029;-73
2023/05/08 10:20:40;;;;;;;4.85;3.53;;;20.40;60.00;;;;;;5033843;28;20034;-73
2023/05/08 10:23:10;;;;;;;4.43;3.60;;;21.00;57.40;;;;;;5018857;28;20045;-72
2023/05/08 10:25:43;;;;;;;3.95;3.08;;;20.70;56.60;;;;;;5036637;28;20026;-73
2023/05/08 10:28:15;;;;;;;3.83;3.40;;;20.40;57.90;;;;;;5019024;28;20116;-73
2023/05/08 10:30:48;;;;;;;4.05;3.65;;;19.50;57.70;;;;;;5037043;28;20465;-73
2023/05/08 10:33:17;;;;;;;4.30;3.53;;;19.20;59.80;;;;;;5036616;28;20033;-72
2023/05/08 10:35:44;;;;;;;3.45;3.15;;;19.50;59.90;;;;;;5036631;28;20057;-73
2023/05/08 10:38:10;;;;;;;4.00;3.47;;;19.40;58.20;;;;;;5036501;28;20032;-73
2023/05/08 10:40:37;;;;;;;4.05;3.65;;;20.00;58.10;;;;;;5036479;28;20029;-73
2023/05/08 10:43:05;;;;;;;6.00;3.42;;;19.70;57.20;;;;;;5018857;28;20073;-73
2023/05/08 10:45:32;;;;;;;3.87;3.27;;;19.50;58.10;;;;;;5018502;28;20045;-72
2023/05/08 10:48:24;;;;;;;3.28;2.97;;;19.80;59.10;;;;;;5036335;28;20095;-73
2023/05/08 10:51:09;;;;;;;3.42;3.13;;;20.30;56.40;;;;;;5036200;28;20410;-73
2023/05/08 10:53:52;;;;;;;3.42;3.13;;;20.20;55.70;;;;;;5036152;28;20029;-73
2023/05/08 10:56:27;;;;;;;2.83;2.63;;;19.50;58.10;;;;;;5018450;28;20029;-72
2023/05/08 10:58:57;;;;;;;4.15;2.95;;;19.00;58.80;;;;;;5036468;28;20034;-73
2023/05/08 11:01:25;;;;;;;4.53;2.90;;;19.40;58.50;;;;;;5035946;28;20035;-72
2023/05/08 11:03:51;;;;;;;2.92;2.72;;;20.00;56.90;;;;;;5036289;28;20380;-73
2023/05/08 11:06:37;;;;;;;3.05;2.85;;;21.00;54.80;;;;;;5017988;28;20545;-73
2023/05/08 11:09:03;;;;;;;3.28;3.08;;;21.30;52.60;;;;;;5035871;28;20041;-73
2023/05/08 11:11:32;;;;;;;4.53;2.90;;;21.40;52.30;;;;;;5035858;28;20017;-73
2023/05/08 11:14:08;;;;;;;3.28;2.97;;;21.20;53.10;;;;;;5018107;28;20087;-73
2023/05/08 11:16:52;;;;;;;3.85;3.22;;;21.40;52.80;;;;;;5017733;28;20087;-73
2023/05/08 11:19:23;;;;;;;3.45;3.13;;;20.90;53.10;;;;;;5035884;28;20032;-73
2023/05/08 11:22:21;;;;;;;4.43;3.20;;;20.90;55.10;;;;;;5035896;28;20026;-73
2023/05/08 11:25:05;;;;;;;3.40;3.10;;;21.90;52.80;;;;;;5035567;28;20116;-73
2023/05/08 11:27:32;;;;;;;3.88;2.80;;;22.30;51.00;;;;;;5035988;28;20029;-74
2023/05/08 11:30:23;;;;;;;3.60;2.55;;;22.40;50.60;;;;;;5017690;28;20188;-73
2023/05/08 11:32:56;;;;;;;4.55;2.80;;;22.60;50.40;;;;;;5016797;28;20120;-73
2023/05/08 11:35:43;;;;;;;2.78;2.45;;;22.50;49.80;;;;;;5017522;28;20044;-74
2023/05/08 11:38:18;;;;;;;2.97;2.78;;;22.70;50.70;;;;;;5035295;28;20083;-73
2023/05/08 11:40:44;;;;;;;2.85;2.42;;;22.80;49.20;;;;;;5035163;28;20060;-73
2023/05/08 11:44:13;;;;;;;2.92;2.67;;;23.10;49.50;;;;;;5017253;28;20121;-73
2023/05/08 11:46:52;;;;;;;3.85;3.00;;;23.70;48.50;;;;;;4960700;28;20132;-74
2023/05/08 11:49:21;;;;;;;3.95;2.80;;;23.80;46.50;;;;;;4997722;28;20034;-73
2023/05/08 11:51:56;;;;;;;2.97;2.00;;;23.60;46.40;;;;;;5014276;28;20034;-73
2023/05/08 11:54:27;;;;;;;3.95;2.50;;;23.70;47.10;;;;;;5013844;28;20060;-73
2023/05/08 11:56:53;;;;;;;2.75;2.38;;;23.80;45.80;;;;;;5015144;28;20065;-73
2023/05/08 11:59:20;;;;;;;3.08;2.40;;;23.80;45.50;;;;;;4997494;28;20057;-73
2023/05/08 12:01:48;;;;;;;3.55;2.72;;;23.90;45.90;;;;;;5015309;28;20040;-73
2023/05/08 12:04:14;;;;;;;2.58;2.38;;;23.70;47.20;;;;;;4997775;28;20100;-73
2023/05/08 12:06:40;;;;;;;3.75;2.10;;;23.80;47.40;;;;;;4997418;28;20033;-73
2023/05/08 12:09:15;;;;;;;2.60;2.40;;;24.30;46.00;;;;;;5014850;28;20068;-73
2023/05/08 12:11:42;;;;;;;3.03;2.40;;;23.90;44.80;;;;;;5014945;28;20060;-73
2023/05/08 12:14:08;;;;;;;2.28;2.17;;;23.30;45.30;;;;;;5014786;28;20112;-73
2023/05/08 12:16:38;;;;;;;4.95;2.47;;;23.10;45.40;;;;;;5015132;28;20034;-73
2023/05/08 12:19:09;;;;;;;3.60;2.47;;;24.00;44.80;;;;;;4997523;28;20029;-73
2023/05/08 12:21:35;;;;;;;2.40;2.20;;;23.60;45.10;;;;;;4996951;28;20522;-73
2023/05/08 12:24:04;;;;;;;2.55;2.20;;;23.70;45.50;;;;;;4996954;28;20029;-73
2023/05/08 12:26:33;;;;;;;;;;;24.20;44.80;;;;;;5015241;28;20031;-73
2023/05/08 12:28:59;;;;;;;4.43;2.70;;;24.60;45.10;;;;;;5014539;28;19964;-72
2023/05/08 12:31:24;;;;;;;3.78;2.13;;;24.70;43.80;;;;;;5014599;28;20065;-72
2023/05/08 12:33:51;;;;;;;5.13;2.38;;;24.80;43.60;;;;;;5013136;28;20026;-66
2023/05/08 12:36:16;;;;;;;2.38;2.28;;;25.00;43.50;;;;;;5014621;28;20038;-66
2023/05/08 12:38:42;;;;;;;5.30;2.33;;;24.80;43.50;;;;;;5013814;28;20144;-66
2023/05/08 12:41:09;;;;;;;2.50;2.15;;;24.40;43.50;;;;;;4996399;28;20482;-66
2023/05/08 12:43:35;;;;;;;2.78;2.50;;;24.40;44.60;;;;;;4996529;28;20452;-65
2023/05/08 12:46:02;;;;;;;4.13;2.22;;;24.40;43.80;;;;;;5023199;28;20075;-65
2023/05/08 12:48:29;;;;;;;3.63;2.38;;;23.70;45.00;;;;;;5033931;28;20036;-66
2023/05/08 12:51:02;;;;;;;2.63;2.42;;;23.80;45.60;;;;;;5033917;28;20064;-66
2023/05/08 12:53:30;;;;;;;2.60;2.40;;;24.30;44.30;;;;;;5033798;28;20033;-66
2023/05/08 12:55:57;;;;;;;2.13;2.03;;;24.30;44.40;;;;;;5034027;28;20033;-66
2023/05/08 12:58:25;;;;;;;1.90;1.80;;;24.40;43.60;;;;;;5016429;28;20052;-66
2023/05/08 13:00:52;;;;;;;2.50;2.30;;;24.50;43.90;;;;;;5016087;28;20079;-65
2023/05/08 13:03:23;;;;;;;4.55;2.13;;;24.70;44.00;;;;;;5033790;28;20037;-65